createdAt,value
2023-02-06T00:01:33.430Z,4.57
2023-02-06T00:04:00.213Z,3.83
2023-02-06T00:06:26.993Z,4.33
2023-02-06T00:08:53.840Z,5.27
2023-02-06T00:11:21.835Z,5.10
2023-02-06T00:13:49.270Z,4.30
2023-02-06T00:16:25.958Z,5.30
2023-02-06T00:18:54.030Z,4.63
2023-02-06T00:21:25.929Z,4.93
2023-02-06T00:23:54.834Z,4.00
2023-02-06T00:26:22.034Z,5.60
2023-02-06T00:28:49.049Z,3.77
2023-02-06T00:31:16.208Z,4.60
2023-02-06T00:33:43.323Z,4.60
2023-02-06T00:36:10.577Z,5.10
2023-02-06T00:38:38.526Z,5.87
2023-02-06T00:41:05.786Z,4.77
2023-02-06T00:43:32.954Z,6.17
2023-02-06T00:45:59.713Z,6.10
2023-02-06T00:48:26.477Z,4.53
2023-02-06T00:50:54.005Z,5.97
2023-02-06T00:53:21.318Z,3.83
2023-02-06T00:55:48.171Z,5.00
2023-02-06T00:58:15.184Z,4.27
2023-02-06T01:00:41.935Z,4.20
2023-02-06T01:03:08.676Z,5.30
2023-02-06T01:05:35.779Z,5.30
2023-02-06T01:08:04.459Z,5.80
2023-02-06T01:10:31.701Z,4.40
2023-02-06T01:12:58.540Z,5.30
2023-02-06T01:15:25.375Z,5.03
2023-02-06T01:17:52.205Z,4.60
2023-02-06T01:20:19.065Z,5.20
2023-02-06T01:22:45.804Z,5.60
2023-02-06T01:25:12.662Z,5.50
2023-02-06T01:27:39.817Z,5.57
2023-02-06T01:32:39.733Z,5.20
2023-02-06T01:35:08.140Z,5.00
2023-02-06T01:37:36.246Z,4.63
2023-02-06T01:40:04.449Z,5.53
2023-02-06T01:42:34.946Z,5.57
2023-02-06T01:45:25.594Z,5.10
2023-02-06T01:48:04.176Z,5.93
2023-02-06T01:50:34.177Z,5.27
2023-02-06T01:53:02.020Z,6.50
2023-02-06T01:55:28.946Z,5.20
2023-02-06T01:57:55.900Z,5.73
2023-02-06T02:00:22.927Z,6.57
2023-02-06T02:02:50.189Z,4.87
2023-02-06T02:05:18.405Z,4.97
2023-02-06T02:08:06.518Z,4.10
2023-02-06T02:10:33.910Z,5.63
2023-02-06T02:13:00.705Z,4.40
2023-02-06T02:15:47.702Z,5.40
2023-02-06T02:18:37.463Z,6.10
2023-02-06T02:21:23.106Z,5.50
2023-02-06T02:24:02.073Z,5.80
2023-02-06T02:26:59.876Z,4.73
2023-02-06T02:29:54.469Z,6.03
2023-02-06T02:32:44.340Z,6.60
2023-02-06T02:36:08.489Z,5.17
2023-02-06T02:39:03.732Z,6.30
2023-02-06T02:41:49.542Z,4.93
2023-02-06T02:44:34.210Z,6.60
2023-02-06T02:47:07.878Z,5.40
2023-02-06T02:49:37.898Z,5.60
2023-02-06T02:52:05.112Z,5.37
2023-02-06T02:54:31.829Z,5.97
2023-02-06T02:57:08.099Z,5.30
2023-02-06T02:59:39.052Z,7.13
2023-02-06T03:02:25.338Z,6.70
2023-02-06T03:05:06.498Z,6.80
2023-02-06T03:07:58.907Z,6.50
2023-02-06T03:10:46.806Z,5.27
2023-02-06T03:13:36.981Z,6.53
2023-02-06T03:16:40.408Z,6.43
2023-02-06T03:19:12.986Z,7.37
2023-02-06T03:21:41.777Z,6.23
2023-02-06T03:24:13.572Z,7.87
2023-02-06T03:26:42.347Z,7.43
2023-02-06T03:29:12.873Z,6.27
2023-02-06T03:31:45.690Z,6.60
2023-02-06T03:34:30.568Z,5.23
2023-02-06T03:36:57.407Z,6.20
2023-02-06T03:39:24.298Z,5.40
2023-02-06T03:41:53.796Z,6.03
2023-02-06T03:44:24.722Z,5.13
2023-02-06T03:46:54.474Z,4.53
2023-02-06T03:49:24.628Z,4.60
2023-02-06T03:51:59.364Z,4.77
2023-02-06T03:54:27.472Z,5.27
2023-02-06T03:57:00.265Z,4.70
2023-02-06T03:59:27.304Z,4.43
2023-02-06T04:01:58.068Z,4.23
2023-02-06T04:04:29.302Z,4.20
2023-02-06T04:07:00.347Z,4.77
2023-02-06T04:09:27.109Z,4.70
2023-02-06T04:11:53.986Z,4.63
2023-02-06T04:14:20.704Z,4.70
2023-02-06T04:16:47.581Z,4.20
2023-02-06T04:19:14.325Z,4.70
2023-02-06T04:21:41.078Z,4.73
2023-02-06T04:24:08.083Z,4.27
2023-02-06T04:26:34.829Z,4.90
2023-02-06T04:29:01.581Z,6.47
2023-02-06T04:31:28.380Z,6.03
2023-02-06T04:33:55.252Z,5.80
2023-02-06T04:36:22.012Z,4.77
2023-02-06T04:38:48.761Z,6.30
2023-02-06T04:41:15.490Z,5.77
2023-02-06T04:43:42.228Z,7.60
2023-02-06T04:46:08.922Z,6.83
2023-02-06T04:48:37.031Z,6.27
2023-02-06T04:51:04.103Z,6.60
2023-02-06T04:53:30.969Z,6.23
2023-02-06T04:56:05.344Z,6.33
2023-02-06T04:58:32.815Z,5.67
2023-02-06T05:00:59.622Z,7.63
2023-02-06T05:03:26.517Z,6.13
2023-02-06T05:05:53.488Z,7.13
2023-02-06T05:08:20.182Z,5.80
2023-02-06T05:10:47.246Z,5.87
2023-02-06T05:13:14.250Z,6.20
2023-02-06T05:15:41.025Z,5.40
2023-02-06T05:18:07.794Z,5.87
2023-02-06T05:20:34.586Z,5.30
2023-02-06T05:23:01.319Z,6.20
2023-02-06T05:25:28.221Z,5.03
2023-02-06T05:27:55.340Z,5.83
2023-02-06T05:30:22.115Z,5.17
2023-02-06T05:32:48.854Z,5.50
2023-02-06T05:35:15.641Z,4.63
2023-02-06T05:37:42.455Z,5.60
2023-02-06T05:40:10.252Z,6.37
2023-02-06T05:42:37.261Z,5.20
2023-02-06T05:45:04.300Z,5.80
2023-02-06T05:47:31.026Z,5.90
2023-02-06T05:49:57.761Z,6.23
2023-02-06T05:52:24.518Z,5.57
2023-02-06T05:54:51.325Z,6.27
2023-02-06T05:57:18.105Z,5.97
2023-02-06T05:59:44.808Z,7.13
2023-02-06T06:02:11.601Z,4.67
2023-02-06T06:04:38.380Z,4.53
2023-02-06T06:07:05.191Z,4.33
2023-02-06T06:09:31.934Z,4.73
2023-02-06T06:11:58.657Z,5.00
2023-02-06T06:14:25.445Z,5.07
2023-02-06T06:16:52.743Z,5.00
2023-02-06T06:19:19.678Z,4.20
2023-02-06T06:21:46.462Z,5.13
2023-02-06T06:24:13.266Z,4.30
2023-02-06T06:26:40.066Z,5.27
2023-02-06T06:29:06.990Z,4.53
2023-02-06T06:31:33.864Z,5.50
2023-02-06T06:34:00.761Z,4.50
2023-02-06T06:36:27.749Z,5.07
2023-02-06T06:38:54.573Z,4.73
2023-02-06T06:41:21.286Z,4.53
2023-02-06T06:43:49.581Z,4.30
2023-02-06T06:46:18.994Z,4.03
2023-02-06T06:48:45.741Z,5.03
2023-02-06T06:51:12.579Z,4.30
2023-02-06T06:53:40.254Z,4.73
2023-02-06T06:56:08.609Z,4.97
2023-02-06T06:58:35.401Z,5.33
2023-02-06T07:01:02.235Z,5.47
2023-02-06T07:03:29.032Z,5.73
2023-02-06T07:05:55.760Z,7.23
2023-02-06T07:08:22.483Z,4.87
2023-02-06T07:10:49.559Z,5.37
2023-02-06T07:13:16.358Z,6.50
2023-02-06T07:15:43.510Z,6.17
2023-02-06T07:18:11.864Z,7.37
2023-02-06T07:20:38.808Z,7.40
2023-02-06T07:23:06.286Z,7.40
2023-02-06T07:25:33.140Z,6.63
2023-02-06T07:27:59.995Z,6.37
2023-02-06T07:30:26.947Z,6.90
2023-02-06T07:32:53.768Z,6.83
2023-02-06T07:35:20.508Z,6.80
2023-02-06T07:37:47.281Z,7.93
2023-02-06T07:40:14.058Z,6.90
2023-02-06T07:42:40.841Z,8.00
2023-02-06T07:45:07.968Z,7.97
2023-02-06T07:47:34.698Z,7.77
2023-02-06T07:50:01.424Z,7.60
2023-02-06T07:52:28.225Z,8.00
2023-02-06T07:54:54.977Z,8.60
2023-02-06T07:57:21.974Z,8.00
2023-02-06T07:59:48.889Z,9.20
2023-02-06T08:02:15.672Z,8.40
2023-02-06T08:04:42.502Z,8.33
2023-02-06T08:07:11.232Z,9.80
2023-02-06T08:09:38.138Z,9.60
2023-02-06T08:12:04.966Z,8.83
2023-02-06T08:14:32.778Z,9.23
2023-02-06T08:16:59.970Z,9.10
2023-02-06T08:19:26.777Z,10.33
2023-02-06T08:21:53.495Z,9.23
2023-02-06T08:24:20.247Z,7.77
2023-02-06T08:26:47.020Z,7.80
2023-02-06T08:29:14.511Z,8.20
2023-02-06T08:31:42.629Z,8.10
2023-02-06T08:34:13.174Z,8.27
2023-02-06T08:36:42.148Z,7.63
2023-02-06T08:39:12.742Z,9.50
2023-02-06T08:41:41.394Z,9.80
2023-02-06T08:44:12.354Z,8.70
2023-02-06T08:46:40.043Z,8.30
2023-02-06T08:49:11.301Z,9.67
2023-02-06T08:51:38.270Z,8.23
2023-02-06T08:54:07.956Z,8.60
2023-02-06T08:56:36.410Z,8.40
2023-02-06T08:59:04.364Z,8.40
2023-02-06T09:01:32.976Z,8.30
2023-02-06T09:04:02.920Z,8.20
2023-02-06T09:06:30.317Z,7.43
2023-02-06T09:08:57.645Z,7.60
2023-02-06T09:11:25.695Z,7.60
2023-02-06T09:13:55.376Z,7.77
2023-02-06T09:16:22.983Z,7.00
2023-02-06T09:18:53.928Z,7.30
2023-02-06T09:21:23.523Z,7.60
2023-02-06T09:23:53.915Z,7.60
2023-02-06T09:26:23.747Z,6.63
2023-02-06T09:28:57.858Z,8.17
2023-02-06T09:31:26.476Z,6.30
2023-02-06T09:33:53.816Z,6.80
2023-02-06T09:36:21.602Z,6.73
2023-02-06T09:38:50.699Z,7.40
2023-02-06T09:41:32.323Z,8.17
2023-02-06T09:44:13.727Z,8.10
2023-02-06T09:47:11.298Z,8.07
2023-02-06T09:49:54.678Z,8.00
2023-02-06T09:52:40.923Z,7.47
2023-02-06T09:55:13.702Z,7.20
2023-02-06T09:57:58.629Z,7.60
2023-02-06T10:00:56.210Z,8.57
2023-02-06T10:03:48.657Z,7.20
2023-02-06T10:06:28.720Z,7.90
2023-02-06T10:09:01.625Z,7.40
2023-02-06T10:11:57.398Z,8.20
2023-02-06T10:14:35.958Z,7.70
2023-02-06T10:17:05.877Z,8.70
2023-02-06T10:19:46.634Z,8.03
2023-02-06T10:22:21.065Z,7.97
2023-02-06T10:25:11.468Z,8.07
2023-02-06T10:27:41.947Z,8.50
2023-02-06T10:32:52.860Z,7.20
2023-02-06T10:35:39.777Z,8.13
2023-02-06T10:38:25.495Z,8.93
2023-02-06T10:41:01.095Z,9.33
2023-02-06T10:43:52.970Z,8.50
2023-02-06T10:46:23.263Z,8.03
2023-02-06T10:49:09.767Z,8.23
2023-02-06T10:51:42.548Z,11.70
2023-02-06T10:54:18.324Z,8.63
2023-02-06T10:56:47.840Z,9.43
2023-02-06T10:59:28.240Z,8.20
2023-02-06T11:02:14.429Z,9.03
2023-02-06T11:04:51.897Z,12.93
2023-02-06T11:07:36.953Z,12.57
2023-02-06T11:10:04.845Z,12.77
2023-02-06T11:12:36.324Z,11.00
2023-02-06T11:15:24.606Z,9.97
2023-02-06T11:17:52.900Z,11.30
2023-02-06T11:20:24.114Z,13.40
2023-02-06T11:22:53.520Z,12.60
2023-02-06T11:25:22.943Z,13.20
2023-02-06T11:27:50.228Z,14.93
2023-02-06T11:30:31.837Z,14.20
2023-02-06T11:33:04.680Z,13.20
2023-02-06T11:35:38.551Z,13.20
2023-02-06T11:38:18.702Z,13.53
2023-02-06T11:41:04.315Z,14.10
2023-02-06T11:43:49.086Z,10.40
2023-02-06T11:46:20.508Z,10.00
2023-02-06T11:49:08.687Z,9.50
2023-02-06T11:51:46.510Z,10.93
2023-02-06T11:54:28.196Z,12.97
2023-02-06T11:56:57.724Z,14.33
2023-02-06T11:59:27.059Z,14.77
2023-02-06T12:01:54.283Z,13.60
2023-02-06T12:04:30.989Z,14.40
2023-02-06T12:07:04.617Z,14.00
2023-02-06T12:09:31.736Z,14.93
2023-02-06T12:12:27.154Z,13.23
2023-02-06T12:15:33.169Z,15.20
2023-02-06T12:18:04.957Z,14.90
2023-02-06T12:20:35.107Z,14.20
2023-02-06T12:23:32.432Z,15.20
2023-02-06T12:26:03.874Z,14.73
2023-02-06T12:28:59.017Z,15.67
2023-02-06T12:31:41.749Z,12.87
2023-02-06T12:34:42.546Z,13.30
2023-02-06T12:37:22.158Z,12.53
2023-02-06T12:39:51.524Z,11.70
2023-02-06T12:42:42.332Z,13.27
2023-02-06T12:45:31.650Z,12.37
2023-02-06T12:48:19.763Z,13.67
2023-02-06T12:50:49.741Z,12.70
2023-02-06T12:53:35.383Z,12.40
2023-02-06T12:56:07.522Z,13.00
2023-02-06T12:58:56.416Z,13.53
2023-02-06T13:02:17.539Z,11.70
2023-02-06T13:04:46.965Z,12.33
2023-02-06T13:07:17.135Z,13.30
2023-02-06T13:10:07.350Z,12.07
2023-02-06T13:12:35.022Z,10.87
2023-02-06T13:15:08.709Z,10.57
2023-02-06T13:17:46.108Z,12.10
2023-02-06T13:20:24.543Z,11.90
2023-02-06T13:22:54.018Z,11.30
2023-02-06T13:25:28.591Z,20.63
2023-02-06T13:27:59.410Z,11.50
2023-02-06T13:30:29.024Z,11.77
2023-02-06T13:33:22.968Z,10.30
2023-02-06T13:36:10.091Z,10.43
2023-02-06T13:38:42.430Z,10.50
2023-02-06T13:41:15.205Z,10.60
2023-02-06T13:43:52.831Z,11.03
2023-02-06T13:46:23.793Z,10.23
2023-02-06T13:48:59.375Z,10.00
2023-02-06T13:51:45.872Z,10.90
2023-02-06T13:54:40.854Z,9.97
2023-02-06T13:57:29.046Z,13.53
2023-02-06T14:00:02.597Z,11.07
2023-02-06T14:02:38.831Z,8.40
2023-02-06T14:05:10.927Z,8.10
2023-02-06T14:08:04.695Z,8.20
2023-02-06T14:11:03.464Z,8.20
2023-02-06T14:13:55.640Z,7.80
2023-02-06T14:16:32.101Z,9.50
2023-02-06T14:19:06.048Z,8.90
2023-02-06T14:21:53.964Z,8.60
2023-02-06T14:24:48.113Z,9.53
2023-02-06T14:27:39.737Z,8.73
2023-02-06T14:33:07.950Z,10.40
2023-02-06T14:36:00.825Z,11.07
2023-02-06T14:38:49.207Z,9.00
2023-02-06T14:41:17.272Z,10.30
2023-02-06T14:43:45.992Z,9.10
2023-02-06T14:46:15.735Z,8.00
2023-02-06T14:48:51.882Z,13.73
2023-02-06T14:51:29.365Z,8.90
2023-02-06T14:54:00.346Z,6.70
2023-02-06T14:56:38.822Z,7.70
2023-02-06T14:59:23.915Z,8.50
2023-02-06T15:01:54.847Z,7.73
2023-02-06T15:04:30.230Z,20.33
2023-02-06T15:06:59.954Z,10.00
2023-02-06T15:09:29.577Z,9.57
2023-02-06T15:11:59.198Z,8.97
2023-02-06T15:14:34.561Z,8.67
2023-02-06T15:17:02.909Z,8.43
2023-02-06T15:19:37.734Z,8.33
2023-02-06T15:22:13.814Z,7.53
2023-02-06T15:25:28.464Z,7.37
2023-02-06T15:28:03.810Z,6.60
2023-02-06T15:30:34.665Z,7.10
2023-02-06T15:33:02.050Z,8.00
2023-02-06T15:35:31.506Z,8.17
2023-02-06T15:38:14.592Z,7.90
2023-02-06T15:40:45.774Z,5.93
2023-02-06T15:43:20.021Z,7.10
2023-02-06T15:45:48.911Z,8.57
2023-02-06T15:48:27.710Z,8.67
2023-02-06T15:50:58.033Z,8.30
2023-02-06T15:53:40.667Z,6.70
2023-02-06T15:56:41.090Z,7.27
2023-02-06T15:59:20.195Z,7.20
2023-02-06T16:01:48.013Z,7.70
2023-02-06T16:04:18.638Z,9.00
2023-02-06T16:06:47.153Z,7.30
2023-02-06T16:09:21.826Z,7.43
2023-02-06T16:11:52.434Z,7.10
2023-02-06T16:14:51.003Z,8.60
2023-02-06T16:17:17.700Z,7.77
2023-02-06T16:19:56.486Z,7.70
2023-02-06T16:22:31.083Z,6.60
2023-02-06T16:25:43.327Z,7.90
2023-02-06T16:28:25.863Z,7.80
2023-02-06T16:31:04.585Z,7.83
2023-02-06T16:33:46.442Z,9.20
2023-02-06T16:36:18.032Z,6.57
2023-02-06T16:38:53.986Z,7.97
2023-02-06T16:41:26.050Z,6.17
2023-02-06T16:43:54.663Z,9.03
2023-02-06T16:46:21.623Z,8.40
2023-02-06T16:48:48.657Z,8.20
2023-02-06T16:51:21.126Z,6.93
2023-02-06T16:53:49.174Z,8.73
2023-02-06T16:56:17.815Z,9.00
2023-02-06T16:58:45.566Z,10.17
2023-02-06T17:01:25.567Z,8.67
2023-02-06T17:03:53.292Z,9.63
2023-02-06T17:06:27.216Z,9.87
2023-02-06T17:08:57.398Z,9.07
2023-02-06T17:11:24.336Z,8.93
2023-02-06T17:13:51.035Z,9.20
2023-02-06T17:16:20.466Z,10.17
2023-02-06T17:18:47.725Z,10.90
2023-02-06T17:21:17.193Z,11.43
2023-02-06T17:23:44.332Z,11.40
2023-02-06T17:26:17.117Z,12.20
2023-02-06T17:28:44.747Z,15.77
2023-02-06T17:31:12.059Z,23.30
2023-02-06T17:33:39.011Z,15.27
2023-02-06T17:36:08.044Z,13.43
2023-02-06T17:38:34.843Z,13.37
2023-02-06T17:41:01.651Z,14.80
2023-02-06T17:43:29.653Z,14.57
2023-02-06T17:45:56.480Z,14.07
2023-02-06T17:48:23.222Z,13.80
2023-02-06T17:50:50.036Z,14.60
2023-02-06T17:53:17.882Z,16.50
2023-02-06T17:55:45.252Z,17.63
2023-02-06T17:58:12.096Z,18.70
2023-02-06T18:00:39.344Z,12.17
2023-02-06T18:03:06.382Z,12.43
2023-02-06T18:05:33.565Z,13.33
2023-02-06T18:08:00.370Z,14.30
2023-02-06T18:10:27.219Z,12.93
2023-02-06T18:12:54.157Z,12.80
2023-02-06T18:15:21.281Z,14.03
2023-02-06T18:17:48.196Z,14.43
2023-02-06T18:20:15.622Z,14.07
2023-02-06T18:22:42.447Z,13.73
2023-02-06T18:25:11.827Z,13.63
2023-02-06T18:27:40.374Z,16.00
2023-02-06T18:30:07.736Z,12.90
2023-02-06T18:32:37.592Z,13.33
2023-02-06T18:35:05.017Z,12.10
2023-02-06T18:37:31.800Z,24.00
2023-02-06T18:39:58.537Z,13.87
2023-02-06T18:42:44.102Z,13.67
2023-02-06T18:45:10.856Z,13.30
2023-02-06T18:47:39.109Z,17.47
2023-02-06T18:50:06.294Z,13.90
2023-02-06T18:52:33.093Z,12.27
2023-02-06T18:54:59.940Z,13.33
2023-02-06T18:57:26.652Z,11.10
2023-02-06T18:59:53.432Z,11.33
2023-02-06T19:02:20.301Z,10.97
2023-02-06T19:04:47.168Z,12.33
2023-02-06T19:07:15.408Z,13.97
2023-02-06T19:09:42.271Z,10.13
2023-02-06T19:12:09.042Z,11.43
2023-02-06T19:14:36.029Z,12.40
2023-02-06T19:17:03.095Z,11.20
2023-02-06T19:19:31.289Z,12.43
2023-02-06T19:21:58.086Z,12.33
2023-02-06T19:24:26.295Z,13.07
2023-02-06T19:26:53.216Z,11.57
2023-02-06T19:29:34.307Z,10.60
2023-02-06T19:32:02.261Z,11.83
2023-02-06T19:34:29.038Z,10.57
2023-02-06T19:36:55.802Z,12.00
2023-02-06T19:39:22.537Z,14.20
2023-02-06T19:41:49.293Z,13.93
2023-02-06T19:44:16.015Z,19.40
2023-02-06T19:46:42.878Z,15.03
2023-02-06T19:49:11.394Z,14.70
2023-02-06T19:51:40.823Z,15.50
2023-02-06T19:54:07.926Z,17.03
2023-02-06T19:56:39.293Z,14.60
2023-02-06T19:59:13.637Z,15.97
2023-02-06T20:01:40.378Z,16.23
2023-02-06T20:04:07.211Z,15.87
2023-02-06T20:06:35.256Z,14.63
2023-02-06T20:09:04.261Z,15.63
2023-02-06T20:11:32.782Z,20.37
2023-02-06T20:13:59.891Z,15.70
2023-02-06T20:16:29.508Z,17.70
2023-02-06T20:18:57.083Z,16.80
2023-02-06T20:21:32.949Z,16.13
2023-02-06T20:24:03.160Z,15.03
2023-02-06T20:26:34.800Z,14.30
2023-02-06T20:29:01.740Z,15.67
2023-02-06T20:31:29.299Z,13.63
2023-02-06T20:33:56.428Z,13.20
2023-02-06T20:36:26.351Z,13.70
2023-02-06T20:38:59.142Z,13.63
2023-02-06T20:41:31.779Z,12.63
2023-02-06T20:44:00.569Z,13.40
2023-02-06T20:46:29.760Z,13.70
2023-02-06T20:49:01.350Z,14.70
2023-02-06T20:51:29.024Z,17.17
2023-02-06T20:53:56.179Z,17.53
2023-02-06T20:56:23.839Z,15.40
2023-02-06T20:58:51.238Z,16.50
2023-02-06T21:01:26.251Z,17.60
2023-02-06T21:03:55.950Z,15.03
2023-02-06T21:06:22.934Z,16.43
2023-02-06T21:08:51.664Z,15.77
2023-02-06T21:11:18.629Z,14.80
2023-02-06T21:13:45.347Z,14.20
2023-02-06T21:16:13.649Z,14.30
2023-02-06T21:18:42.648Z,14.67
2023-02-06T21:21:12.611Z,15.50
2023-02-06T21:23:41.041Z,15.10
2023-02-06T21:26:09.715Z,14.70
2023-02-06T21:28:37.293Z,13.87
2023-02-06T21:31:07.118Z,13.70
2023-02-06T21:33:35.116Z,14.80
2023-02-06T21:36:03.127Z,16.23
2023-02-06T21:38:30.102Z,14.93
2023-02-06T21:41:02.854Z,14.20
2023-02-06T21:43:29.601Z,14.40
2023-02-06T21:45:57.929Z,15.07
2023-02-06T21:48:24.849Z,15.20
2023-02-06T21:50:51.587Z,16.27
2023-02-06T21:53:18.449Z,16.23
2023-02-06T21:55:45.940Z,15.77
2023-02-06T21:58:16.868Z,15.97
2023-02-06T22:00:45.971Z,15.63
2023-02-06T22:03:13.523Z,16.37
2023-02-06T22:05:40.507Z,15.63
2023-02-06T22:08:07.509Z,15.27
2023-02-06T22:10:37.940Z,14.43
2023-02-06T22:13:06.004Z,13.23
2023-02-06T22:15:33.789Z,14.60
2023-02-06T22:18:00.994Z,15.00
2023-02-06T22:20:28.177Z,17.87
2023-02-06T22:22:55.553Z,17.40
2023-02-06T22:25:22.476Z,17.83
2023-02-06T22:27:49.375Z,17.10
2023-02-06T22:30:16.262Z,18.60
2023-02-06T22:32:43.064Z,17.73
2023-02-06T22:35:09.931Z,18.90
2023-02-06T22:37:36.829Z,18.27
2023-02-06T22:40:04.371Z,19.80
2023-02-06T22:42:31.195Z,19.37
2023-02-06T22:44:58.011Z,20.67
2023-02-06T22:47:24.897Z,21.70
2023-02-06T22:49:52.701Z,19.20
2023-02-06T22:52:38.228Z,22.80
2023-02-06T22:55:05.939Z,21.13
2023-02-06T22:57:35.309Z,21.20
2023-02-06T23:00:02.166Z,19.40
2023-02-06T23:02:29.013Z,20.20
2023-02-06T23:04:55.814Z,17.27
2023-02-06T23:07:22.570Z,20.10
2023-02-06T23:09:49.352Z,21.17
2023-02-06T23:12:16.344Z,20.67
2023-02-06T23:14:43.549Z,20.30
2023-02-06T23:17:10.808Z,17.90
2023-02-06T23:19:39.508Z,20.27
2023-02-06T23:22:06.407Z,22.03
2023-02-06T23:24:33.186Z,21.50
2023-02-06T23:27:00.212Z,19.37
2023-02-06T23:29:27.032Z,22.80
2023-02-06T23:31:54.225Z,21.00
2023-02-06T23:34:24.120Z,22.17
2023-02-06T23:36:51.977Z,22.27
2023-02-06T23:39:19.287Z,23.27
2023-02-06T23:41:46.274Z,22.90
2023-02-06T23:44:13.070Z,21.30
2023-02-06T23:46:40.492Z,22.73
2023-02-06T23:49:08.154Z,21.10
2023-02-06T23:51:36.566Z,22.93
2023-02-06T23:54:04.035Z,22.13
2023-02-06T23:56:32.443Z,22.27
2023-02-06T23:59:01.140Z,20.70
